createdAt,value
2022-09-18T00:00:39.820Z,101107.25
2022-09-18T00:02:02.785Z,101106.41
2022-09-18T00:03:04.765Z,101108.22
2022-09-18T00:04:08.953Z,101107.53
2022-09-18T00:05:10.615Z,101111.88
2022-09-18T00:06:15.904Z,101109.22
2022-09-18T00:07:18.622Z,101107.53
2022-09-18T00:08:21.166Z,101112.84
2022-09-18T00:09:22.803Z,101104.84
2022-09-18T00:10:25.319Z,101103.88
2022-09-18T00:11:32.955Z,101104.75
2022-09-18T00:12:35.497Z,101102.19
2022-09-18T00:13:39.089Z,101103.03
2022-09-18T00:14:41.808Z,101103.16
2022-09-18T00:15:43.401Z,101097.97
2022-09-18T00:16:46.138Z,101091.81
2022-09-18T00:17:48.221Z,101092.75
2022-09-18T00:18:50.802Z,101100.75
2022-09-18T00:19:52.400Z,101099.22
2022-09-18T00:21:04.980Z,101097.38
2022-09-18T00:22:11.075Z,101101.03
2022-09-18T00:23:12.600Z,101099.34
2022-09-18T00:24:17.397Z,101092.31
2022-09-18T00:25:18.962Z,101094.13
2022-09-18T00:26:21.917Z,101099.59
2022-09-18T00:27:24.818Z,101096.09
2022-09-18T00:28:27.609Z,101100.44
2022-09-18T00:29:29.457Z,101099.59
2022-09-18T00:30:31.976Z,101096.22
2022-09-18T00:31:35.423Z,101096.91
2022-09-18T00:32:37.959Z,101094.25
2022-09-18T00:33:40.166Z,101096.91
2022-09-18T00:34:42.681Z,101089.78
2022-09-18T00:35:45.151Z,101090.63
2022-09-18T00:36:47.656Z,101089.66
2022-09-18T00:37:49.191Z,101088.69
2022-09-18T00:38:51.956Z,101088.69
2022-09-18T00:39:53.546Z,101093.19
2022-09-18T00:40:57.204Z,101096.69
2022-09-18T00:41:58.766Z,101097.50
2022-09-18T00:43:21.968Z,101095.84
2022-09-18T00:44:36.707Z,101094.84
2022-09-18T00:45:39.261Z,101091.38
2022-09-18T00:46:44.135Z,101095.97
2022-09-18T00:47:49.951Z,101096.81
2022-09-18T00:48:59.873Z,101091.47
2022-09-18T00:50:11.389Z,101094.03
2022-09-18T00:51:14.586Z,101101.28
2022-09-18T00:52:19.109Z,101099.59
2022-09-18T00:53:21.038Z,101102.25
2022-09-18T00:54:29.202Z,101094.25
2022-09-18T00:55:33.880Z,101101.28
2022-09-18T00:56:38.166Z,101103.94
2022-09-18T00:57:45.708Z,101100.44
2022-09-18T00:58:50.689Z,101107.47
2022-09-18T00:59:53.215Z,101112.78
2022-09-18T01:00:56.175Z,101110.97
2022-09-18T01:01:59.632Z,101108.31
2022-09-18T01:03:02.351Z,101113.63
2022-09-18T01:04:04.203Z,101116.41
2022-09-18T01:05:08.586Z,101112.78
2022-09-18T01:06:14.007Z,101114.59
2022-09-18T01:07:29.061Z,101105.75
2022-09-18T01:08:44.073Z,101111.94
2022-09-18T01:09:56.951Z,101112.91
2022-09-18T01:11:10.187Z,101106.88
2022-09-18T01:12:22.369Z,101107.72
2022-09-18T01:13:34.400Z,101106.88
2022-09-18T01:14:45.012Z,101115.72
2022-09-18T01:15:51.035Z,101116.69
2022-09-18T01:17:01.921Z,101107.84
2022-09-18T01:18:14.911Z,101109.69
2022-09-18T01:19:38.128Z,101106.88
2022-09-18T01:21:01.190Z,101109.53
2022-09-18T01:22:16.898Z,101114.88
2022-09-18T01:23:51.994Z,101111.50
2022-09-18T01:25:16.437Z,101110.66
2022-09-18T01:26:29.682Z,101112.47
2022-09-18T01:27:40.497Z,101114.16
2022-09-18T01:28:48.251Z,101112.47
2022-09-18T01:30:01.132Z,101112.47
2022-09-18T01:31:06.473Z,101109.81
2022-09-18T01:32:16.629Z,101108.84
2022-09-18T01:33:26.754Z,101115.00
2022-09-18T01:34:33.068Z,101106.88
2022-09-18T01:35:42.268Z,101119.22
2022-09-18T01:36:50.024Z,101110.25
2022-09-18T01:37:58.790Z,101111.94
2022-09-18T01:39:12.727Z,101109.28
2022-09-18T01:40:21.478Z,101112.78
2022-09-18T01:41:24.924Z,101118.97
2022-09-18T01:42:30.660Z,101105.66
2022-09-18T01:43:34.788Z,101113.50
2022-09-18T01:44:41.992Z,101113.63
2022-09-18T01:45:46.668Z,101115.34
2022-09-18T01:46:51.076Z,101107.47
2022-09-18T01:47:56.992Z,101102.97
2022-09-18T01:49:05.341Z,101107.34
2022-09-18T01:50:10.308Z,101103.84
2022-09-18T01:51:18.344Z,101099.34
2022-09-18T01:52:26.062Z,101110.97
2022-09-18T01:53:32.378Z,101106.34
2022-09-18T01:54:38.724Z,101107.19
2022-09-18T01:55:43.602Z,101104.53
2022-09-18T01:56:50.115Z,101099.34
2022-09-18T01:57:58.430Z,101098.63
2022-09-18T01:59:04.545Z,101102.13
2022-09-18T02:00:11.316Z,101103.25
2022-09-18T02:01:18.393Z,101107.56
2022-09-18T02:02:25.018Z,101112.19
2022-09-18T02:03:29.236Z,101110.25
2022-09-18T02:04:37.064Z,101115.56
2022-09-18T02:05:43.304Z,101107.56
2022-09-18T02:06:50.843Z,101100.59
2022-09-18T02:08:02.611Z,101096.09
2022-09-18T02:09:06.116Z,101089.78
2022-09-18T02:10:08.363Z,101088.13
2022-09-18T02:11:13.539Z,101084.59
2022-09-18T02:12:20.637Z,101085.72
2022-09-18T02:13:27.706Z,101086.78
2022-09-18T02:14:33.495Z,101079.81
2022-09-18T02:15:41.613Z,101079.06
2022-09-18T02:16:45.541Z,101084.41
2022-09-18T02:17:54.859Z,101086.34
2022-09-18T02:18:58.006Z,101085.50
2022-09-18T02:20:05.214Z,101091.94
2022-09-18T02:21:10.429Z,101092.06
2022-09-18T02:22:17.248Z,101087.72
2022-09-18T02:23:20.314Z,101092.19
2022-09-18T02:24:28.361Z,101087.84
2022-09-18T02:25:35.399Z,101094.00
2022-09-18T02:26:42.119Z,101088.81
2022-09-18T02:27:44.792Z,101083.47
2022-09-18T02:28:49.220Z,101073.81
2022-09-18T02:29:53.744Z,101084.59
2022-09-18T02:30:58.349Z,101083.75
2022-09-18T02:32:02.248Z,101084.75
2022-09-18T02:33:03.939Z,101084.59
2022-09-18T02:34:08.231Z,101077.56
2022-09-18T02:35:11.025Z,101075.75
2022-09-18T02:36:39.820Z,101075.75
2022-09-18T02:37:54.526Z,101079.41
2022-09-18T02:39:08.334Z,101075.91
2022-09-18T02:40:21.776Z,101068.03
2022-09-18T02:41:34.734Z,101064.50
2022-09-18T02:42:44.507Z,101069.00
2022-09-18T02:43:54.366Z,101058.34
2022-09-18T02:45:03.241Z,101066.31
2022-09-18T02:46:17.783Z,101073.34
2022-09-18T02:47:30.269Z,101063.66
2022-09-18T02:48:48.544Z,101069.00
2022-09-18T02:50:00.084Z,101074.31
2022-09-18T02:51:11.400Z,101062.97
2022-09-18T02:52:19.444Z,101065.63
2022-09-18T02:53:28.461Z,101063.94
2022-09-18T02:54:35.689Z,101078.94
2022-09-18T02:55:45.321Z,101069.25
2022-09-18T02:56:51.165Z,101071.91
2022-09-18T02:57:59.422Z,101075.56
2022-09-18T02:59:06.289Z,101070.25
2022-09-18T03:00:12.420Z,101068.44
2022-09-18T03:01:18.238Z,101070.09
2022-09-18T03:02:23.704Z,101061.25
2022-09-18T03:03:27.697Z,101063.94
2022-09-18T03:04:32.441Z,101064.94
2022-09-18T03:05:34.023Z,101070.25
2022-09-18T03:06:36.522Z,101079.91
2022-09-18T03:07:38.257Z,101079.91
2022-09-18T03:08:40.736Z,101070.25
2022-09-18T03:09:42.680Z,101074.56
2022-09-18T03:10:45.168Z,101069.25
2022-09-18T03:11:46.763Z,101067.44
2022-09-18T03:12:49.328Z,101076.41
2022-09-18T03:13:51.139Z,101066.59
2022-09-18T03:14:53.603Z,101066.59
2022-09-18T03:15:55.597Z,101055.13
2022-09-18T03:16:59.453Z,101062.13
2022-09-18T03:18:01.354Z,101059.34
2022-09-18T03:19:04.344Z,101070.00
2022-09-18T03:20:06.963Z,101064.66
2022-09-18T03:21:09.483Z,101067.31
2022-09-18T03:22:10.991Z,101066.31
2022-09-18T03:23:13.841Z,101059.34
2022-09-18T03:24:15.391Z,101063.66
2022-09-18T03:25:17.888Z,101067.31
2022-09-18T03:26:19.455Z,101062.00
2022-09-18T03:27:21.937Z,101070.84
2022-09-18T03:28:23.451Z,101070.00
2022-09-18T03:29:26.072Z,101064.66
2022-09-18T03:30:27.802Z,101061.00
2022-09-18T03:31:30.402Z,101071.66
2022-09-18T03:32:33.259Z,101065.38
2022-09-18T03:33:37.887Z,101073.34
2022-09-18T03:34:39.439Z,101068.03
2022-09-18T03:35:43.402Z,101071.53
2022-09-18T03:36:46.971Z,101074.19
2022-09-18T03:37:48.872Z,101078.81
2022-09-18T03:38:51.414Z,101077.97
2022-09-18T03:39:53.930Z,101078.09
2022-09-18T03:40:55.510Z,101072.66
2022-09-18T03:41:58.111Z,101073.63
2022-09-18T03:42:59.639Z,101068.44
2022-09-18T03:44:03.672Z,101071.09
2022-09-18T03:45:06.726Z,101080.75
2022-09-18T03:46:09.263Z,101080.75
2022-09-18T03:47:10.879Z,101082.56
2022-09-18T03:48:14.679Z,101083.56
2022-09-18T03:49:16.206Z,101087.88
2022-09-18T03:50:18.936Z,101082.56
2022-09-18T03:51:21.112Z,101089.47
2022-09-18T03:52:23.617Z,101085.97
2022-09-18T03:53:25.918Z,101082.44
2022-09-18T03:54:28.808Z,101082.31
2022-09-18T03:55:30.428Z,101082.31
2022-09-18T03:56:32.988Z,101081.34
2022-09-18T03:57:34.530Z,101080.38
2022-09-18T03:58:37.008Z,101080.38
2022-09-18T03:59:38.541Z,101069.72
2022-09-18T04:00:42.074Z,101069.72
2022-09-18T04:01:43.702Z,101073.25
2022-09-18T04:02:46.301Z,101075.06
2022-09-18T04:03:49.598Z,101082.06
2022-09-18T04:04:53.769Z,101078.69
2022-09-18T04:05:55.434Z,101074.19
2022-09-18T04:06:57.980Z,101081.22
2022-09-18T04:07:59.726Z,101086.56
2022-09-18T04:09:02.332Z,101089.06
2022-09-18T04:10:04.692Z,101082.91
2022-09-18T04:11:07.235Z,101082.91
2022-09-18T04:12:08.757Z,101084.59
2022-09-18T04:13:11.260Z,101078.41
2022-09-18T04:14:14.274Z,101082.06
2022-09-18T04:15:17.352Z,101084.75
2022-09-18T04:16:18.904Z,101082.19
2022-09-18T04:17:21.593Z,101078.69
2022-09-18T04:18:23.695Z,101081.34
2022-09-18T04:19:27.532Z,101078.69
2022-09-18T04:20:29.202Z,101078.69
2022-09-18T04:21:32.561Z,101082.31
2022-09-18T04:22:34.236Z,101080.63
2022-09-18T04:23:36.773Z,101083.16
2022-09-18T04:24:39.578Z,101080.63
2022-09-18T04:25:43.766Z,101073.63
2022-09-18T04:26:45.290Z,101077.97
2022-09-18T04:27:47.781Z,101075.44
2022-09-18T04:28:49.338Z,101074.56
2022-09-18T04:29:51.841Z,101070.25
2022-09-18T04:30:53.499Z,101074.72
2022-09-18T04:31:55.996Z,101064.94
2022-09-18T04:32:57.599Z,101075.56
2022-09-18T04:34:00.106Z,101073.03
2022-09-18T04:35:03.088Z,101078.50
2022-09-18T04:36:05.815Z,101074.00
2022-09-18T04:37:10.392Z,101062.63
2022-09-18T04:38:13.218Z,101072.44
2022-09-18T04:39:14.912Z,101067.09
2022-09-18T04:40:17.598Z,101073.28
2022-09-18T04:41:19.165Z,101074.97
2022-09-18T04:42:21.607Z,101074.97
2022-09-18T04:43:23.464Z,101071.47
2022-09-18T04:44:26.119Z,101075.84
2022-09-18T04:45:27.684Z,101076.53
2022-09-18T04:46:30.235Z,101076.53
2022-09-18T04:47:31.758Z,101068.56
2022-09-18T04:48:37.995Z,101075.56
2022-09-18T04:49:39.683Z,101072.66
2022-09-18T04:50:43.487Z,101076.97
2022-09-18T04:51:45.014Z,101072.50
2022-09-18T04:52:47.495Z,101073.34
2022-09-18T04:53:49.027Z,101076.97
2022-09-18T04:54:51.517Z,101078.69
2022-09-18T04:55:52.998Z,101080.38
2022-09-18T04:56:55.456Z,101081.06
2022-09-18T04:57:57.025Z,101068.63
2022-09-18T04:58:59.873Z,101070.31
2022-09-18T05:00:01.913Z,101069.31
2022-09-18T05:01:16.365Z,101063.19
2022-09-18T05:02:18.427Z,101067.50
2022-09-18T05:03:22.468Z,101061.22
2022-09-18T05:04:24.036Z,101063.88
2022-09-18T05:05:27.656Z,101060.25
2022-09-18T05:06:30.603Z,101060.25
2022-09-18T05:07:33.197Z,101054.91
2022-09-18T05:08:34.826Z,101063.88
2022-09-18T05:09:37.500Z,101056.75
2022-09-18T05:10:39.658Z,101054.06
2022-09-18T05:11:42.174Z,101060.25
2022-09-18T05:12:44.938Z,101061.91
2022-09-18T05:13:48.875Z,101061.91
2022-09-18T05:14:50.621Z,101055.78
2022-09-18T05:15:55.531Z,101061.91
2022-09-18T05:16:57.143Z,101057.44
2022-09-18T05:18:00.962Z,101055.78
2022-09-18T05:19:02.661Z,101054.91
2022-09-18T05:20:06.018Z,101055.78
2022-09-18T05:21:07.610Z,101059.25
2022-09-18T05:22:11.458Z,101058.44
2022-09-18T05:23:13.807Z,101058.56
2022-09-18T05:24:17.384Z,101056.84
2022-09-18T05:25:20.564Z,101054.34
2022-09-18T05:26:23.028Z,101057.97
2022-09-18T05:27:26.939Z,101053.50
2022-09-18T05:28:29.734Z,101059.66
2022-09-18T05:29:31.414Z,101052.53
2022-09-18T05:30:33.911Z,101056.00
2022-09-18T05:31:35.570Z,101056.00
2022-09-18T05:32:38.065Z,101056.84
2022-09-18T05:33:41.179Z,101053.09
2022-09-18T05:34:43.838Z,101055.63
2022-09-18T05:35:45.416Z,101056.47
2022-09-18T05:36:48.218Z,101062.66
2022-09-18T05:37:51.637Z,101060.00
2022-09-18T05:38:54.140Z,101067.97
2022-09-18T05:39:56.365Z,101069.78
2022-09-18T05:41:01.518Z,101071.59
2022-09-18T05:42:03.846Z,101068.09
2022-09-18T05:43:07.216Z,101064.47
2022-09-18T05:44:08.740Z,101072.31
2022-09-18T05:45:12.044Z,101075.81
2022-09-18T05:46:14.813Z,101085.50
2022-09-18T05:47:17.380Z,101081.03
2022-09-18T05:48:18.890Z,101089.03
2022-09-18T05:49:21.389Z,101083.69
2022-09-18T05:50:24.387Z,101090.72
2022-09-18T05:51:26.878Z,101081.88
2022-09-18T05:52:28.432Z,101077.41
2022-09-18T05:53:32.371Z,101077.41
2022-09-18T05:54:36.437Z,101088.06
2022-09-18T05:55:39.016Z,101081.72
2022-09-18T05:56:40.583Z,101080.75
2022-09-18T05:57:43.070Z,101076.41
2022-09-18T05:58:44.590Z,101081.63
2022-09-18T05:59:47.129Z,101079.81
2022-09-18T06:00:51.109Z,101071.81
2022-09-18T06:01:53.597Z,101079.66
2022-09-18T06:02:56.328Z,101077.84
2022-09-18T06:04:02.547Z,101068.88
2022-09-18T06:05:04.911Z,101079.53
2022-09-18T06:06:08.148Z,101082.19
2022-09-18T06:07:10.001Z,101084.88
2022-09-18T06:08:13.296Z,101080.50
2022-09-18T06:09:16.435Z,101075.28
2022-09-18T06:10:20.488Z,101075.19
2022-09-18T06:11:22.210Z,101076.13
2022-09-18T06:12:24.944Z,101076.13
2022-09-18T06:13:26.593Z,101072.63
2022-09-18T06:14:29.169Z,101084.97
2022-09-18T06:15:31.080Z,101077.72
2022-09-18T06:16:34.408Z,101076.88
2022-09-18T06:17:38.101Z,101071.53
2022-09-18T06:18:40.554Z,101067.88
2022-09-18T06:19:42.113Z,101073.22
2022-09-18T06:20:45.505Z,101069.59
2022-09-18T06:21:47.047Z,101066.91
2022-09-18T06:22:49.598Z,101067.78
2022-09-18T06:23:52.088Z,101066.91
2022-09-18T06:24:54.971Z,101067.78
2022-09-18T06:25:59.106Z,101064.00
2022-09-18T06:27:00.634Z,101066.66
2022-09-18T06:28:04.024Z,101072.72
2022-09-18T06:29:05.589Z,101065.69
2022-09-18T06:30:08.993Z,101072.72
2022-09-18T06:31:11.527Z,101075.38
2022-09-18T06:32:13.071Z,101070.06
2022-09-18T06:33:15.712Z,101072.44
2022-09-18T06:34:17.297Z,101061.06
2022-09-18T06:35:19.762Z,101071.59
2022-09-18T06:36:21.321Z,101072.44
2022-09-18T06:37:24.002Z,101063.47
2022-09-18T06:38:25.537Z,101062.50
2022-09-18T06:39:28.300Z,101067.69
2022-09-18T06:40:31.933Z,101070.22
2022-09-18T06:41:34.477Z,101066.59
2022-09-18T06:42:36.039Z,101073.59
2022-09-18T06:43:38.507Z,101069.09
2022-09-18T06:44:40.098Z,101084.97
2022-09-18T06:45:42.733Z,101077.09
2022-09-18T06:46:44.294Z,101080.63
2022-09-18T06:47:46.799Z,101076.13
2022-09-18T06:48:48.497Z,101076.13
2022-09-18T06:49:51.058Z,101072.63
2022-09-18T06:50:53.253Z,101066.31
2022-09-18T06:51:55.785Z,101068.00
2022-09-18T06:53:02.936Z,101064.34
2022-09-18T06:54:06.225Z,101069.69
2022-09-18T06:55:08.341Z,101069.56
2022-09-18T06:56:12.183Z,101070.53
2022-09-18T06:57:13.703Z,101070.53
2022-09-18T06:58:17.384Z,101067.75
2022-09-18T06:59:19.141Z,101068.56
2022-09-18T07:00:22.577Z,101057.91
2022-09-18T07:01:24.183Z,101065.63
2022-09-18T07:02:26.750Z,101061.16
2022-09-18T07:03:28.498Z,101060.19
2022-09-18T07:04:30.983Z,101057.53
2022-09-18T07:05:33.163Z,101053.91
2022-09-18T07:06:35.717Z,101055.56
2022-09-18T07:07:37.226Z,101056.28
2022-09-18T07:08:39.685Z,101057.13
2022-09-18T07:09:41.211Z,101057.97
2022-09-18T07:10:43.864Z,101054.31
2022-09-18T07:11:46.720Z,101054.06
2022-09-18T07:12:49.831Z,101055.59
2022-09-18T07:13:53.114Z,101050.16
2022-09-18T07:14:55.744Z,101057.19
2022-09-18T07:15:57.441Z,101066.84
2022-09-18T07:17:00.045Z,101060.53
2022-09-18T07:18:03.340Z,101061.41
2022-09-18T07:19:05.984Z,101067.56
2022-09-18T07:20:08.376Z,101052.56
2022-09-18T07:21:11.172Z,101062.25
2022-09-18T07:22:12.706Z,101063.38
2022-09-18T07:23:15.239Z,101056.19
2022-09-18T07:24:16.767Z,101058.84
2022-09-18T07:25:19.245Z,101050.72
2022-09-18T07:26:20.791Z,101051.59
2022-09-18T07:27:24.666Z,101056.91
2022-09-18T07:28:26.435Z,101054.25
2022-09-18T07:29:28.931Z,101054.09
2022-09-18T07:30:30.550Z,101054.81
2022-09-18T07:31:35.815Z,101060.84
2022-09-18T07:32:37.416Z,101056.38
2022-09-18T07:33:40.417Z,101056.09
2022-09-18T07:34:41.987Z,101057.78
2022-09-18T07:35:44.461Z,101063.81
2022-09-18T07:36:49.464Z,101051.34
2022-09-18T07:37:51.976Z,101049.38
2022-09-18T07:38:53.779Z,101049.94
2022-09-18T07:39:56.300Z,101049.94
2022-09-18T07:41:01.392Z,101049.72
2022-09-18T07:42:08.751Z,101044.09
2022-09-18T07:43:13.210Z,101045.53
2022-09-18T07:44:14.748Z,101042.47
2022-09-18T07:45:17.549Z,101040.22
2022-09-18T07:46:19.432Z,101044.19
2022-09-18T07:47:21.949Z,101047.25
2022-09-18T07:48:24.165Z,101049.38
2022-09-18T07:49:26.700Z,101046.69
2022-09-18T07:50:28.566Z,101049.09
2022-09-18T07:51:31.110Z,101046.16
2022-09-18T07:52:32.633Z,101047.84
2022-09-18T07:53:37.466Z,101052.91
2022-09-18T07:54:38.988Z,101057.25
2022-09-18T07:55:42.825Z,101061.59
2022-09-18T07:56:46.866Z,101054.44
2022-09-18T07:57:55.424Z,101050.94
2022-09-18T07:58:59.319Z,101048.41
2022-09-18T08:00:00.889Z,101049.25
2022-09-18T08:01:09.068Z,101052.91
2022-09-18T08:02:11.348Z,101051.19
2022-09-18T08:03:15.150Z,101045.88
2022-09-18T08:04:16.732Z,101051.19
2022-09-18T08:05:19.192Z,101056.25
2022-09-18T08:06:20.813Z,101048.81
2022-09-18T08:07:25.848Z,101057.41
2022-09-18T08:08:27.468Z,101053.59
2022-09-18T08:09:30.060Z,101050.81
2022-09-18T08:10:32.158Z,101052.34
2022-09-18T08:11:34.687Z,101051.22
2022-09-18T08:12:36.373Z,101056.31
2022-09-18T08:13:39.203Z,101055.19
2022-09-18T08:14:42.139Z,101063.19
2022-09-18T08:15:44.636Z,101054.34
2022-09-18T08:16:47.071Z,101057.97
2022-09-18T08:17:49.608Z,101049.84
2022-09-18T08:18:51.178Z,101044.63
2022-09-18T08:19:53.692Z,101050.97
2022-09-18T08:20:55.777Z,101049.28
2022-09-18T08:21:58.255Z,101062.75
2022-09-18T08:23:01.463Z,101064.72
2022-09-18T08:24:04.423Z,101063.19
2022-09-18T08:25:07.388Z,101063.31
2022-09-18T08:26:10.127Z,101064.16
2022-09-18T08:27:12.905Z,101061.47
2022-09-18T08:28:15.648Z,101064.16
2022-09-18T08:29:19.146Z,101065.97
2022-09-18T08:30:23.230Z,101067.78
2022-09-18T08:31:24.832Z,101067.94
2022-09-18T08:32:27.371Z,101063.47
2022-09-18T08:33:29.045Z,101068.53
2022-09-18T08:34:31.642Z,101070.06
2022-09-18T08:35:34.061Z,101063.59
2022-09-18T08:36:36.609Z,101070.63
2022-09-18T08:37:38.210Z,101064.44
2022-09-18T08:38:40.686Z,101067.22
2022-09-18T08:39:42.697Z,101065.56
2022-09-18T08:41:08.868Z,101056.84
2022-09-18T08:42:25.750Z,101062.19
2022-09-18T08:43:44.325Z,101057.13
2022-09-18T08:44:51.174Z,101056.44
2022-09-18T08:46:00.581Z,101064.44
2022-09-18T08:47:08.537Z,101066.81
2022-09-18T08:48:15.920Z,101065.56
2022-09-18T08:49:25.683Z,101066.97
2022-09-18T08:50:29.587Z,101070.34
2022-09-18T08:51:34.983Z,101063.03
2022-09-18T08:52:41.565Z,101066.41
2022-09-18T08:53:46.963Z,101061.94
2022-09-18T08:54:56.254Z,101051.25
2022-09-18T08:56:00.374Z,101053.75
2022-09-18T08:57:15.520Z,101040.41
2022-09-18T08:58:24.064Z,101054.75
2022-09-18T08:59:38.236Z,101039.72
2022-09-18T09:00:42.980Z,101038.59
2022-09-18T09:01:56.322Z,101033.81
2022-09-18T09:03:09.711Z,101033.53
2022-09-18T09:04:16.122Z,101038.31
2022-09-18T09:05:21.363Z,101043.34
2022-09-18T09:06:33.277Z,101044.09
2022-09-18T09:07:50.641Z,101046.75
2022-09-18T09:09:09.679Z,101052.78
2022-09-18T09:10:39.952Z,101051.81
2022-09-18T09:11:50.050Z,101055.28
2022-09-18T09:13:02.670Z,101049.94
2022-09-18T09:14:45.851Z,101050.69
2022-09-18T09:15:55.181Z,101051.53
2022-09-18T09:17:04.375Z,101049.81
2022-09-18T09:18:17.769Z,101050.81
2022-09-18T09:19:34.758Z,101049.81
2022-09-18T09:20:45.584Z,101047.84
2022-09-18T09:21:56.900Z,101036.88
2022-09-18T09:23:03.200Z,101040.09
2022-09-18T09:24:21.099Z,101044.19
2022-09-18T09:25:29.595Z,101045.59
2022-09-18T09:26:32.256Z,101040.97
2022-09-18T09:27:39.164Z,101046.19
2022-09-18T09:28:51.303Z,101046.88
2022-09-18T09:30:01.935Z,101043.22
2022-09-18T09:31:08.864Z,101051.38
2022-09-18T09:32:20.954Z,101037.19
2022-09-18T09:33:27.754Z,101040.84
2022-09-18T09:34:34.385Z,101038.28
2022-09-18T09:35:42.108Z,101042.78
2022-09-18T09:36:48.970Z,101029.44
2022-09-18T09:37:52.767Z,101023.13
2022-09-18T09:38:58.933Z,101029.31
2022-09-18T09:40:08.608Z,101038.84
2022-09-18T09:41:25.242Z,101034.34
2022-09-18T09:42:31.054Z,101039.56
2022-09-18T09:43:38.466Z,101036.75
2022-09-18T09:44:44.763Z,101035.75
2022-09-18T09:45:48.715Z,101034.63
2022-09-18T09:47:01.268Z,101030.69
2022-09-18T09:48:11.629Z,101029.53
2022-09-18T09:49:18.197Z,101029.25
2022-09-18T09:50:34.752Z,101029.81
2022-09-18T09:51:49.167Z,101021.50
2022-09-18T09:52:56.235Z,101025.56
2022-09-18T09:54:00.045Z,101018.09
2022-09-18T09:55:20.436Z,101014.28
2022-09-18T09:56:29.420Z,101015.69
2022-09-18T09:57:40.193Z,101009.19
2022-09-18T09:58:53.100Z,101016.78
2022-09-18T10:00:06.357Z,101014.81
2022-09-18T10:01:14.105Z,101016.88
2022-09-18T10:02:34.251Z,101004.91
2022-09-18T10:03:47.727Z,101011.66
2022-09-18T10:04:57.144Z,101008.69
2022-09-18T10:06:11.319Z,101011.06
2022-09-18T10:07:20.532Z,101009.91
2022-09-18T10:08:27.548Z,100998.38
2022-09-18T10:09:41.628Z,101001.28
2022-09-18T10:10:49.241Z,101001.16
2022-09-18T10:11:57.474Z,101006.34
2022-09-18T10:13:03.662Z,101006.19
2022-09-18T10:14:12.474Z,101003.53
2022-09-18T10:15:19.419Z,101004.91
2022-09-18T10:16:25.639Z,101005.59
2022-09-18T10:17:34.887Z,101005.28
2022-09-18T10:18:41.235Z,101008.94
2022-09-18T10:19:44.412Z,100998.25
2022-09-18T10:20:50.760Z,100999.94
2022-09-18T10:21:55.909Z,101000.63
2022-09-18T10:23:01.847Z,100996.81
2022-09-18T10:24:15.980Z,101001.72
2022-09-18T10:25:27.461Z,100992.53
2022-09-18T10:26:34.553Z,100997.47
2022-09-18T10:27:37.056Z,100994.66
2022-09-18T10:28:39.554Z,100994.19
2022-09-18T10:29:41.978Z,100988.38
2022-09-18T10:31:01.369Z,100994.97
2022-09-18T10:32:04.335Z,101000.53
2022-09-18T10:33:30.721Z,100999.38
2022-09-18T10:34:41.288Z,100996.56
2022-09-18T10:35:45.276Z,100987.88
2022-09-18T10:36:49.242Z,100983.63
2022-09-18T10:37:50.797Z,100985.63
2022-09-18T10:38:53.483Z,100986.78
2022-09-18T10:39:57.551Z,100994.13
2022-09-18T10:41:15.448Z,101000.38
2022-09-18T10:42:20.540Z,100994.78
2022-09-18T10:43:23.006Z,100997.38
2022-09-18T10:44:28.875Z,100997.25
2022-09-18T10:45:36.230Z,100986.63
2022-09-18T10:46:40.900Z,101001.75
2022-09-18T10:47:44.551Z,100993.31
2022-09-18T10:48:46.168Z,100982.38
2022-09-18T10:49:51.663Z,100989.16
2022-09-18T10:50:56.246Z,100987.78
2022-09-18T10:52:35.978Z,100981.75
2022-09-18T10:53:38.592Z,100988.75
2022-09-18T10:54:41.187Z,100987.78
2022-09-18T10:55:51.584Z,100987.34
2022-09-18T10:57:18.208Z,100983.22
2022-09-18T10:58:30.383Z,100980.94
2022-09-18T10:59:34.622Z,100977.50
2022-09-18T11:00:40.167Z,100975.94
2022-09-18T11:01:44.908Z,100981.53
2022-09-18T11:02:52.349Z,100978.22
2022-09-18T11:04:02.438Z,100979.75
2022-09-18T11:05:04.948Z,100974.28
2022-09-18T11:06:16.348Z,100981.31
2022-09-18T11:07:22.405Z,100981.31
2022-09-18T11:08:30.978Z,100976.78
2022-09-18T11:09:37.781Z,100973.44
2022-09-18T11:10:39.469Z,100969.91
2022-09-18T11:11:45.766Z,100981.59
2022-09-18T11:12:54.971Z,100979.75
2022-09-18T11:14:01.023Z,100984.97
2022-09-18T11:15:07.488Z,100975.97
2022-09-18T11:16:10.349Z,100973.97
2022-09-18T11:17:24.393Z,100978.06
2022-09-18T11:18:27.062Z,100980.44
2022-09-18T11:19:32.831Z,100975.06
2022-09-18T11:20:40.589Z,100975.75
2022-09-18T11:21:47.035Z,100978.44
2022-09-18T11:22:49.554Z,100974.78
2022-09-18T11:24:02.337Z,100973.63
2022-09-18T11:25:18.575Z,100976.47
2022-09-18T11:26:28.852Z,100975.44
2022-09-18T11:27:44.914Z,100974.78
2022-09-18T11:29:05.368Z,100982.09
2022-09-18T11:30:15.120Z,100978.75
2022-09-18T11:31:20.415Z,100975.38
2022-09-18T11:32:26.204Z,100978.91
2022-09-18T11:33:33.005Z,100975.38
2022-09-18T11:34:38.813Z,100970.13
2022-09-18T11:35:45.370Z,100969.75
2022-09-18T11:36:52.849Z,100976.41
2022-09-18T11:37:58.420Z,100970.81
2022-09-18T11:39:01.878Z,100972.09
2022-09-18T11:40:07.799Z,100968.22
2022-09-18T11:41:10.939Z,100970.47
2022-09-18T11:42:15.084Z,100968.25
2022-09-18T11:43:21.428Z,100959.84
2022-09-18T11:44:27.509Z,100972.81
2022-09-18T11:45:47.786Z,100975.09
2022-09-18T11:47:02.189Z,100977.38
2022-09-18T11:48:16.280Z,100990.06
2022-09-18T11:49:23.966Z,100982.34
2022-09-18T11:50:30.336Z,100986.13
2022-09-18T11:51:39.312Z,100985.56
2022-09-18T11:52:45.252Z,100985.88
2022-09-18T11:53:51.896Z,100975.63
2022-09-18T11:55:01.426Z,100987.91
2022-09-18T11:56:09.733Z,100982.28
2022-09-18T11:57:16.744Z,100978.53
2022-09-18T11:58:27.074Z,100972.78
2022-09-18T11:59:32.697Z,100985.97
2022-09-18T12:00:43.370Z,101008.22
2022-09-18T12:01:50.086Z,101016.25
2022-09-18T12:03:01.333Z,101024.41
2022-09-18T12:04:10.721Z,101029.06
2022-09-18T12:05:23.337Z,101026.78
2022-09-18T12:06:34.789Z,101017.25
2022-09-18T12:07:43.382Z,101022.41
2022-09-18T12:08:56.119Z,101013.56
2022-09-18T12:10:06.211Z,101011.72
2022-09-18T12:11:20.509Z,101013.69
2022-09-18T12:12:27.458Z,101016.00
2022-09-18T12:13:47.934Z,101009.94
2022-09-18T12:15:00.258Z,101001.97
2022-09-18T12:16:11.865Z,101008.13
2022-09-18T12:17:22.002Z,101007.03
2022-09-18T12:18:28.238Z,101003.28
2022-09-18T12:19:36.706Z,101004.81
2022-09-18T12:20:43.963Z,101001.88
2022-09-18T12:21:52.391Z,101007.91
2022-09-18T12:22:57.450Z,101011.31
2022-09-18T12:24:00.867Z,101013.69
2022-09-18T12:25:11.799Z,101010.75
2022-09-18T12:26:21.248Z,101005.25
2022-09-18T12:27:32.316Z,101013.13
2022-09-18T12:28:42.657Z,101015.53
2022-09-18T12:30:00.900Z,101010.19